createdAt,value
2023-05-13T00:00:39.696Z,59.84
2023-05-13T00:03:08.985Z,60.04
2023-05-13T00:05:38.630Z,60.03
2023-05-13T00:08:08.029Z,60.20
2023-05-13T00:10:37.025Z,60.30
2023-05-13T00:13:06.095Z,60.38
2023-05-13T00:15:35.645Z,60.53
2023-05-13T00:18:05.142Z,60.64
2023-05-13T00:20:35.861Z,60.80
2023-05-13T00:23:05.424Z,60.96
2023-05-13T00:25:35.965Z,61.01
2023-05-13T00:28:05.834Z,61.09
2023-05-13T00:30:34.728Z,61.16
2023-05-13T00:33:04.019Z,61.32
2023-05-13T00:35:33.857Z,61.65
2023-05-13T00:38:02.767Z,61.95
2023-05-13T00:40:32.028Z,61.97
2023-05-13T00:43:01.361Z,62.07
2023-05-13T00:45:31.297Z,62.25
2023-05-13T00:48:00.465Z,62.34
2023-05-13T00:50:31.022Z,62.22
2023-05-13T00:53:00.152Z,61.93
2023-05-13T00:55:29.367Z,61.88
2023-05-13T00:57:58.254Z,61.94
2023-05-13T01:00:29.449Z,62.09
2023-05-13T01:03:09.231Z,62.06
2023-05-13T01:05:53.128Z,61.93
2023-05-13T01:08:33.730Z,61.92
2023-05-13T01:11:07.191Z,62.02
2023-05-13T01:13:40.300Z,62.09
2023-05-13T01:16:24.367Z,62.12
2023-05-13T01:19:01.280Z,62.25
2023-05-13T01:21:33.508Z,62.36
2023-05-13T01:24:03.497Z,62.46
2023-05-13T01:26:34.574Z,62.70
2023-05-13T01:29:05.141Z,62.89
2023-05-13T01:31:35.161Z,63.04
2023-05-13T01:34:06.960Z,63.10
2023-05-13T01:36:37.793Z,63.20
2023-05-13T01:39:07.703Z,63.37
2023-05-13T01:41:37.572Z,63.44
2023-05-13T01:44:07.437Z,63.44
2023-05-13T01:46:39.474Z,63.60
2023-05-13T01:49:10.341Z,63.57
2023-05-13T01:51:41.576Z,63.56
2023-05-13T01:54:11.822Z,63.75
2023-05-13T01:56:44.599Z,63.79
2023-05-13T01:59:14.821Z,64.05
2023-05-13T02:01:45.693Z,64.16
2023-05-13T02:04:14.507Z,64.01
2023-05-13T02:06:44.665Z,64.12
2023-05-13T02:09:14.901Z,64.27
2023-05-13T02:11:45.171Z,64.39
2023-05-13T02:14:14.672Z,64.58
2023-05-13T02:16:43.774Z,64.84
2023-05-13T02:19:13.147Z,65.07
2023-05-13T02:21:44.066Z,65.20
2023-05-13T02:24:13.693Z,65.32
2023-05-13T02:26:42.650Z,65.22
2023-05-13T02:29:11.759Z,65.03
2023-05-13T02:31:43.114Z,65.09
2023-05-13T02:34:13.136Z,65.00
2023-05-13T02:36:43.668Z,64.88
2023-05-13T02:39:13.065Z,64.83
2023-05-13T02:41:43.312Z,64.88
2023-05-13T02:44:12.820Z,64.91
2023-05-13T02:46:41.467Z,65.01
2023-05-13T02:49:11.332Z,65.11
2023-05-13T02:51:40.728Z,65.20
2023-05-13T02:54:09.568Z,65.37
2023-05-13T02:56:38.733Z,65.36
2023-05-13T02:59:07.573Z,65.50
2023-05-13T03:01:38.248Z,65.65
2023-05-13T03:04:11.204Z,65.77
2023-05-13T03:06:41.113Z,65.79
2023-05-13T03:09:10.242Z,65.91
2023-05-13T03:11:38.998Z,66.18
2023-05-13T03:14:09.452Z,66.44
2023-05-13T03:16:40.682Z,66.65
2023-05-13T03:19:10.519Z,66.64
2023-05-13T03:21:41.190Z,66.68
2023-05-13T03:24:11.808Z,66.90
2023-05-13T03:26:41.277Z,66.96
2023-05-13T03:29:12.444Z,66.91
2023-05-13T03:31:43.590Z,66.88
2023-05-13T03:34:12.948Z,66.91
2023-05-13T03:36:42.484Z,66.73
2023-05-13T03:39:12.403Z,66.59
2023-05-13T03:41:41.566Z,66.45
2023-05-13T03:44:10.512Z,66.34
2023-05-13T03:46:40.434Z,66.37
2023-05-13T03:49:09.685Z,66.16
2023-05-13T03:51:39.207Z,65.86
2023-05-13T03:54:08.887Z,65.79
2023-05-13T03:56:38.837Z,65.70
2023-05-13T03:59:08.050Z,65.36
2023-05-13T04:01:38.103Z,65.23
2023-05-13T04:04:06.887Z,64.97
2023-05-13T04:06:36.646Z,64.69
2023-05-13T04:09:05.889Z,64.37
2023-05-13T04:11:34.764Z,64.37
2023-05-13T04:14:05.126Z,64.17
2023-05-13T04:16:34.717Z,64.01
2023-05-13T04:19:04.878Z,63.72
2023-05-13T04:21:34.724Z,63.32
2023-05-13T04:24:04.168Z,62.91
2023-05-13T04:26:33.368Z,62.48
2023-05-13T04:29:02.610Z,61.90
2023-05-13T04:31:31.963Z,61.58
2023-05-13T04:34:00.898Z,61.31
2023-05-13T04:36:31.516Z,60.73
2023-05-13T04:39:01.511Z,59.89
2023-05-13T04:41:30.691Z,59.30
2023-05-13T04:43:59.773Z,58.88
2023-05-13T04:46:29.215Z,58.22
2023-05-13T04:48:58.794Z,57.63
2023-05-13T04:51:29.221Z,57.40
2023-05-13T04:53:59.612Z,57.33
2023-05-13T04:56:30.478Z,57.27
2023-05-13T04:58:59.589Z,57.04
2023-05-13T05:01:29.207Z,56.73
2023-05-13T05:03:59.236Z,56.24
2023-05-13T05:06:28.380Z,55.68
2023-05-13T05:08:57.908Z,55.28
2023-05-13T05:11:28.664Z,54.61
2023-05-13T05:13:58.508Z,53.90
2023-05-13T05:16:30.583Z,53.00
2023-05-13T05:19:01.016Z,51.42
2023-05-13T05:21:31.856Z,50.21
2023-05-13T05:24:01.936Z,49.53
2023-05-13T05:26:31.657Z,47.86
2023-05-13T05:29:01.428Z,46.84
2023-05-13T05:31:31.210Z,45.78
2023-05-13T05:34:02.886Z,44.02
2023-05-13T05:36:31.867Z,43.13
2023-05-13T05:39:01.979Z,42.71
2023-05-13T05:41:33.529Z,41.96
2023-05-13T05:44:02.544Z,41.02
2023-05-13T05:46:32.844Z,40.39
2023-05-13T05:49:03.929Z,39.57
2023-05-13T05:51:35.135Z,39.17
2023-05-13T05:54:05.757Z,38.64
2023-05-13T05:56:36.249Z,38.42
2023-05-13T05:59:05.342Z,38.08
2023-05-13T06:01:36.557Z,37.59
2023-05-13T06:04:06.654Z,37.22
2023-05-13T06:06:36.809Z,36.38
2023-05-13T06:09:08.006Z,35.08
2023-05-13T06:11:37.523Z,34.82
2023-05-13T06:14:06.416Z,34.25
2023-05-13T06:16:35.743Z,33.32
2023-05-13T06:19:04.777Z,33.29
2023-05-13T06:21:35.610Z,32.65
2023-05-13T06:24:05.297Z,32.69
2023-05-13T06:26:36.391Z,32.45
2023-05-13T06:29:06.198Z,31.98
2023-05-13T06:31:36.564Z,31.80
2023-05-13T06:34:06.741Z,31.08
2023-05-13T06:36:37.296Z,31.15
2023-05-13T06:39:09.649Z,30.32
2023-05-13T06:41:43.544Z,30.54
2023-05-13T06:44:15.888Z,30.05
2023-05-13T06:46:46.660Z,30.10
2023-05-13T06:49:16.049Z,29.92
2023-05-13T06:51:45.304Z,29.90
2023-05-13T06:54:14.530Z,29.49
2023-05-13T06:56:44.138Z,29.52
2023-05-13T06:59:13.647Z,29.46
2023-05-13T07:01:42.978Z,28.94
2023-05-13T07:04:12.889Z,29.09
2023-05-13T07:06:42.968Z,28.62
2023-05-13T07:09:12.929Z,28.96
2023-05-13T07:11:42.620Z,27.29
2023-05-13T07:14:11.730Z,27.29
2023-05-13T07:16:40.885Z,27.25
2023-05-13T07:19:09.997Z,27.19
2023-05-13T07:21:40.096Z,26.77
2023-05-13T07:24:09.537Z,26.48
2023-05-13T07:26:38.784Z,26.16
2023-05-13T07:29:09.254Z,26.31
2023-05-13T07:31:38.196Z,26.04
2023-05-13T07:34:08.015Z,25.16
2023-05-13T07:36:37.838Z,24.13
2023-05-13T07:39:08.752Z,24.36
2023-05-13T07:41:38.664Z,24.44
2023-05-13T07:44:09.481Z,24.53
2023-05-13T07:46:38.948Z,24.28
2023-05-13T07:49:08.582Z,24.49
2023-05-13T07:51:38.724Z,24.63
2023-05-13T07:54:09.062Z,24.43
2023-05-13T07:56:40.809Z,24.17
2023-05-13T07:59:10.515Z,24.22
2023-05-13T08:01:39.207Z,24.05
2023-05-13T08:04:09.196Z,23.72
2023-05-13T08:06:40.115Z,23.15
2023-05-13T08:09:14.222Z,22.63
2023-05-13T08:11:46.809Z,22.64
2023-05-13T08:14:18.773Z,22.71
2023-05-13T08:16:50.770Z,22.72
2023-05-13T08:19:20.597Z,22.14
2023-05-13T08:21:50.942Z,22.12
2023-05-13T08:24:20.279Z,22.84
2023-05-13T08:26:49.059Z,22.72
2023-05-13T08:29:18.104Z,23.05
2023-05-13T08:31:47.261Z,22.94
2023-05-13T08:34:16.645Z,22.83
2023-05-13T08:36:46.066Z,21.89
2023-05-13T08:39:15.904Z,21.80
2023-05-13T08:41:45.062Z,21.65
2023-05-13T08:44:14.700Z,21.72
2023-05-13T08:46:48.179Z,22.03
2023-05-13T08:49:17.203Z,22.47
2023-05-13T08:51:46.569Z,21.99
2023-05-13T08:54:16.886Z,21.74
2023-05-13T08:56:46.324Z,21.30
2023-05-13T08:59:15.593Z,21.04
2023-05-13T09:01:45.589Z,20.53
2023-05-13T09:04:14.482Z,20.83
2023-05-13T09:06:43.721Z,20.77
2023-05-13T09:09:13.075Z,20.77
2023-05-13T09:11:44.574Z,21.33
2023-05-13T09:14:13.560Z,21.18
2023-05-13T09:16:42.384Z,21.39
2023-05-13T09:19:11.975Z,21.81
2023-05-13T09:21:41.955Z,21.96
2023-05-13T09:24:19.754Z,22.15
2023-05-13T09:26:49.757Z,22.45
2023-05-13T09:29:22.828Z,23.19
2023-05-13T09:31:55.399Z,23.45
2023-05-13T09:34:34.861Z,23.00
2023-05-13T09:37:06.249Z,23.09
2023-05-13T09:39:41.279Z,23.47
2023-05-13T09:42:19.801Z,23.65
2023-05-13T09:44:49.591Z,24.28
2023-05-13T09:47:18.411Z,23.62
2023-05-13T09:49:55.077Z,23.76
2023-05-13T09:52:24.524Z,23.72
2023-05-13T09:54:53.427Z,23.80
2023-05-13T09:57:24.990Z,23.74
2023-05-13T09:59:59.131Z,22.80
2023-05-13T10:02:28.683Z,22.25
2023-05-13T10:04:58.088Z,22.53
2023-05-13T10:07:27.379Z,22.78
2023-05-13T10:10:01.723Z,22.73
2023-05-13T10:12:31.900Z,22.71
2023-05-13T10:15:01.352Z,22.75
2023-05-13T10:17:30.585Z,22.84
2023-05-13T10:19:59.834Z,22.85
2023-05-13T10:22:31.249Z,22.76
2023-05-13T10:25:02.734Z,22.98
2023-05-13T10:27:33.180Z,23.03
2023-05-13T10:30:03.942Z,23.36
2023-05-13T10:32:33.358Z,23.47
2023-05-13T10:35:12.302Z,24.06
2023-05-13T10:38:15.958Z,24.33
2023-05-13T10:40:53.679Z,24.44
2023-05-13T10:43:25.386Z,24.44
2023-05-13T10:46:07.215Z,24.19
2023-05-13T10:48:43.217Z,24.43
2023-05-13T10:51:16.416Z,24.43
2023-05-13T10:53:51.002Z,24.51
2023-05-13T10:56:25.583Z,24.25
2023-05-13T10:59:02.368Z,24.24
2023-05-13T11:01:38.828Z,24.34
2023-05-13T11:04:19.025Z,24.37
2023-05-13T11:06:50.626Z,24.49
2023-05-13T11:09:24.906Z,24.67
2023-05-13T11:11:56.414Z,25.42
2023-05-13T11:14:27.920Z,25.25
2023-05-13T11:17:08.229Z,25.20
2023-05-13T11:19:47.883Z,25.21
2023-05-13T11:22:21.844Z,25.15
2023-05-13T11:25:10.412Z,24.93
2023-05-13T11:27:41.853Z,24.91
2023-05-13T11:30:28.659Z,24.69
2023-05-13T11:32:58.702Z,24.74
2023-05-13T11:35:31.229Z,24.98
2023-05-13T11:38:01.754Z,24.74
2023-05-13T11:40:38.856Z,24.61
2023-05-13T11:43:07.969Z,24.90
2023-05-13T11:45:40.006Z,25.01
2023-05-13T11:48:20.933Z,25.12
2023-05-13T11:50:52.641Z,24.66
2023-05-13T11:53:22.304Z,24.72
2023-05-13T11:55:51.512Z,24.84
2023-05-13T11:58:21.441Z,24.64
2023-05-13T12:00:49.990Z,24.49
2023-05-13T12:03:19.693Z,24.00
2023-05-13T12:05:49.044Z,23.80
2023-05-13T12:08:18.537Z,23.38
2023-05-13T12:10:47.402Z,23.44
2023-05-13T12:13:18.950Z,23.50
2023-05-13T12:15:47.987Z,23.44
2023-05-13T12:18:17.935Z,23.76
2023-05-13T12:20:47.235Z,24.15
2023-05-13T12:23:16.340Z,24.47
2023-05-13T12:25:47.435Z,24.90
2023-05-13T12:28:19.373Z,24.87
2023-05-13T12:30:57.418Z,24.85
2023-05-13T12:33:29.532Z,25.00
2023-05-13T12:36:27.733Z,25.30
2023-05-13T12:39:04.888Z,25.42
2023-05-13T12:41:36.824Z,25.43
2023-05-13T12:44:11.258Z,25.21
2023-05-13T12:46:51.136Z,25.25
2023-05-13T12:49:19.887Z,25.19
2023-05-13T12:51:48.638Z,25.30
2023-05-13T12:54:18.691Z,25.26
2023-05-13T12:56:48.198Z,25.24
2023-05-13T12:59:18.807Z,25.01
2023-05-13T13:01:49.190Z,24.99
2023-05-13T13:04:18.749Z,24.83
2023-05-13T13:06:47.839Z,24.97
2023-05-13T13:09:16.512Z,24.89
2023-05-13T13:11:46.330Z,24.87
2023-05-13T13:14:15.269Z,25.22
2023-05-13T13:16:44.739Z,24.83
2023-05-13T13:19:13.708Z,24.58
2023-05-13T13:21:42.517Z,24.59
2023-05-13T13:24:11.214Z,24.52
2023-05-13T13:26:40.545Z,24.29
2023-05-13T13:29:09.443Z,24.52
2023-05-13T13:31:38.706Z,24.35
2023-05-13T13:34:09.743Z,24.27
2023-05-13T13:36:38.574Z,24.38
2023-05-13T13:39:07.503Z,24.56
2023-05-13T13:41:37.012Z,24.56
2023-05-13T13:44:06.123Z,24.12
2023-05-13T13:46:35.004Z,24.65
2023-05-13T13:49:16.273Z,25.10
2023-05-13T13:51:37.449Z,25.70
2023-05-13T13:54:07.025Z,26.73
2023-05-13T13:56:38.130Z,29.03
2023-05-13T13:59:07.521Z,29.49
2023-05-13T14:01:39.949Z,29.14
2023-05-13T14:04:20.580Z,30.37
2023-05-13T14:06:50.966Z,32.27
2023-05-13T14:09:19.663Z,32.07
2023-05-13T14:11:48.883Z,32.93
2023-05-13T14:14:18.801Z,33.51
2023-05-13T14:16:47.894Z,33.39
2023-05-13T14:19:18.340Z,32.99
2023-05-13T14:21:47.754Z,33.38
2023-05-13T14:24:16.747Z,33.02
2023-05-13T14:26:46.317Z,33.87
2023-05-13T14:29:15.645Z,34.90
2023-05-13T14:31:45.131Z,34.47
2023-05-13T14:34:14.337Z,33.95
2023-05-13T14:36:44.375Z,33.24
2023-05-13T14:39:13.030Z,33.91
2023-05-13T14:41:43.423Z,34.01
2023-05-13T14:44:13.175Z,34.08
2023-05-13T14:46:41.886Z,34.81
2023-05-13T14:49:10.364Z,34.96
2023-05-13T14:51:38.869Z,35.27
2023-05-13T14:54:07.692Z,35.46
2023-05-13T14:56:37.602Z,34.68
2023-05-13T14:59:06.604Z,34.59
2023-05-13T15:01:35.772Z,35.00
2023-05-13T15:04:04.959Z,34.98
2023-05-13T15:06:34.116Z,34.91
2023-05-13T15:09:03.449Z,35.13
2023-05-13T15:11:32.951Z,35.40
2023-05-13T15:14:02.979Z,35.40
2023-05-13T15:16:32.009Z,35.76
2023-05-13T15:19:01.006Z,35.41
2023-05-13T15:21:29.882Z,35.09
2023-05-13T15:23:58.551Z,35.07
2023-05-13T15:26:28.063Z,34.80
2023-05-13T15:28:57.948Z,34.57
2023-05-13T15:31:30.135Z,35.12
2023-05-13T15:33:59.324Z,35.70
2023-05-13T15:36:28.359Z,35.91
2023-05-13T15:38:57.123Z,35.61
2023-05-13T15:41:26.953Z,34.90
2023-05-13T15:43:57.886Z,34.55
2023-05-13T15:46:26.938Z,33.40
2023-05-13T15:48:57.107Z,33.11
2023-05-13T15:51:26.753Z,32.77
2023-05-13T15:53:55.439Z,32.68
2023-05-13T15:56:25.529Z,32.37
2023-05-13T15:58:55.611Z,32.51
2023-05-13T16:01:25.170Z,32.27
2023-05-13T16:03:54.668Z,32.11
2023-05-13T16:06:24.009Z,31.95
2023-05-13T16:11:24.473Z,33.14
2023-05-13T16:13:53.314Z,32.84
2023-05-13T16:16:22.102Z,32.59
2023-05-13T16:18:50.874Z,32.67
2023-05-13T16:21:19.999Z,33.04
2023-05-13T16:23:50.749Z,33.10
2023-05-13T16:26:21.361Z,33.63
2023-05-13T16:28:50.517Z,34.67
2023-05-13T16:31:19.634Z,35.03
2023-05-13T16:33:48.738Z,35.55
2023-05-13T16:36:18.098Z,35.76
2023-05-13T16:38:47.208Z,35.54
2023-05-13T16:41:17.050Z,35.56
2023-05-13T16:43:45.802Z,35.42
2023-05-13T16:46:16.660Z,35.62
2023-05-13T16:48:45.681Z,35.64
2023-05-13T16:51:14.529Z,35.68
2023-05-13T16:53:43.458Z,35.79
2023-05-13T16:56:12.402Z,36.02
2023-05-13T16:58:42.293Z,36.29
2023-05-13T17:01:11.386Z,36.44
2023-05-13T17:03:40.402Z,36.74
2023-05-13T17:06:09.644Z,37.03
2023-05-13T17:08:38.725Z,37.21
2023-05-13T17:11:10.052Z,37.26
2023-05-13T17:13:38.758Z,37.41
2023-05-13T17:16:08.647Z,37.54
2023-05-13T17:18:37.705Z,37.75
2023-05-13T17:21:07.416Z,37.93
2023-05-13T17:23:36.698Z,38.30
2023-05-13T17:26:05.367Z,38.57
2023-05-13T17:28:34.313Z,38.84
2023-05-13T17:31:04.844Z,38.93
2023-05-13T17:33:34.486Z,39.08
2023-05-13T17:36:04.413Z,39.23
2023-05-13T17:38:33.641Z,39.23
2023-05-13T17:41:02.771Z,39.19
2023-05-13T17:43:32.456Z,39.34
2023-05-13T17:46:02.078Z,39.39
2023-05-13T17:48:32.850Z,39.69
2023-05-13T17:51:01.589Z,39.77
2023-05-13T17:53:31.694Z,39.65
2023-05-13T17:56:01.617Z,39.58
2023-05-13T17:58:31.014Z,39.87
2023-05-13T18:01:00.385Z,39.85
2023-05-13T18:03:30.220Z,39.94
2023-05-13T18:05:59.916Z,40.39
2023-05-13T18:08:28.767Z,40.71
2023-05-13T18:10:57.390Z,40.99
2023-05-13T18:13:27.359Z,41.22
2023-05-13T18:15:55.955Z,41.25
2023-05-13T18:18:25.234Z,40.96
2023-05-13T18:20:54.512Z,40.90
2023-05-13T18:23:23.816Z,40.84
2023-05-13T18:25:56.343Z,40.87
2023-05-13T18:28:25.843Z,40.86
2023-05-13T18:30:56.004Z,41.10
2023-05-13T18:33:25.705Z,41.43
2023-05-13T18:35:54.550Z,41.74
2023-05-13T18:38:23.763Z,41.86
2023-05-13T18:40:52.577Z,41.82
2023-05-13T18:43:21.166Z,42.22
2023-05-13T18:45:50.076Z,42.36
2023-05-13T18:48:20.388Z,42.51
2023-05-13T18:50:52.984Z,42.56
2023-05-13T18:53:21.825Z,42.76
2023-05-13T18:55:51.517Z,42.92
2023-05-13T18:58:20.849Z,43.22
2023-05-13T19:00:51.479Z,43.36
2023-05-13T19:03:21.627Z,43.56
2023-05-13T19:05:52.820Z,43.59
2023-05-13T19:08:22.382Z,43.83
2023-05-13T19:10:52.944Z,43.90
2023-05-13T19:13:22.360Z,43.74
2023-05-13T19:15:51.314Z,43.80
2023-05-13T19:18:20.359Z,43.98
2023-05-13T19:20:49.022Z,43.91
2023-05-13T19:23:17.999Z,44.12
2023-05-13T19:25:48.030Z,44.38
2023-05-13T19:28:18.362Z,44.46
2023-05-13T19:30:46.885Z,44.41
2023-05-13T19:33:17.523Z,44.56
2023-05-13T19:35:46.052Z,44.74
2023-05-13T19:38:16.081Z,45.01
2023-05-13T19:40:45.101Z,45.24
2023-05-13T19:43:14.483Z,45.35
2023-05-13T19:45:44.911Z,45.40
2023-05-13T19:48:13.708Z,45.50
2023-05-13T19:50:42.637Z,45.52
2023-05-13T19:53:12.429Z,45.52
2023-05-13T19:55:42.405Z,45.50
2023-05-13T19:58:11.874Z,45.52
2023-05-13T20:00:40.862Z,45.61
2023-05-13T20:03:11.334Z,45.68
2023-05-13T20:05:44.454Z,45.87
2023-05-13T20:08:13.778Z,46.06
2023-05-13T20:10:42.906Z,46.34
2023-05-13T20:13:11.683Z,46.51
2023-05-13T20:15:42.068Z,46.61
2023-05-13T20:18:10.785Z,46.62
2023-05-13T20:20:41.219Z,46.79
2023-05-13T20:23:10.137Z,46.99
2023-05-13T20:25:38.806Z,47.13
2023-05-13T20:28:08.094Z,47.28
2023-05-13T20:30:37.155Z,47.68
2023-05-13T20:33:06.214Z,48.12
2023-05-13T20:35:36.622Z,48.29
2023-05-13T20:38:05.578Z,48.39
2023-05-13T20:40:35.083Z,48.50
2023-05-13T20:43:05.062Z,48.55
2023-05-13T20:45:36.817Z,48.30
2023-05-13T20:48:07.763Z,47.93
2023-05-13T20:50:37.643Z,47.93
2023-05-13T20:53:07.162Z,47.88
2023-05-13T20:55:35.708Z,47.85
2023-05-13T20:58:04.612Z,47.85
2023-05-13T21:00:33.637Z,48.14
2023-05-13T21:03:02.345Z,48.14
2023-05-13T21:05:31.593Z,48.22
2023-05-13T21:08:00.814Z,48.55
2023-05-13T21:10:29.590Z,48.74
2023-05-13T21:12:58.093Z,48.84
2023-05-13T21:15:28.106Z,48.68
2023-05-13T21:17:56.759Z,48.55
2023-05-13T21:20:25.668Z,48.46
2023-05-13T21:22:54.876Z,48.44
2023-05-13T21:25:23.565Z,48.51
2023-05-13T21:27:52.331Z,48.87
2023-05-13T21:30:21.441Z,49.00
2023-05-13T21:32:52.749Z,49.03
2023-05-13T21:35:21.398Z,49.16
2023-05-13T21:37:52.261Z,49.30
2023-05-13T21:40:22.950Z,49.39
2023-05-13T21:42:52.424Z,49.43
2023-05-13T21:45:22.287Z,49.54
2023-05-13T21:47:51.159Z,49.61
2023-05-13T21:50:20.738Z,49.36
2023-05-13T21:52:49.640Z,49.41
2023-05-13T21:55:19.358Z,49.68
2023-05-13T21:57:48.896Z,50.09
2023-05-13T22:00:19.116Z,50.24
2023-05-13T22:02:49.097Z,49.97
2023-05-13T22:05:18.029Z,50.04
2023-05-13T22:07:46.669Z,50.08
2023-05-13T22:10:15.666Z,49.87
2023-05-13T22:12:44.823Z,49.70
2023-05-13T22:15:13.670Z,49.76
2023-05-13T22:17:42.627Z,49.95
2023-05-13T22:20:13.113Z,50.12
2023-05-13T22:22:42.417Z,50.43
2023-05-13T22:25:11.340Z,50.45
2023-05-13T22:27:40.515Z,50.56
2023-05-13T22:30:10.221Z,50.61
2023-05-13T22:32:39.785Z,50.15
2023-05-13T22:35:09.540Z,50.01
2023-05-13T22:37:38.053Z,50.02
2023-05-13T22:40:09.495Z,50.01
2023-05-13T22:42:38.672Z,49.95
2023-05-13T22:45:09.272Z,50.09
2023-05-13T22:47:39.079Z,50.11
2023-05-13T22:50:09.487Z,50.06
2023-05-13T22:52:38.308Z,50.04
2023-05-13T22:55:08.584Z,50.44
2023-05-13T22:57:37.728Z,50.78
2023-05-13T23:00:08.108Z,51.02
2023-05-13T23:02:38.295Z,51.18
2023-05-13T23:05:08.744Z,51.20
2023-05-13T23:07:37.965Z,51.23
2023-05-13T23:10:08.090Z,51.39
2023-05-13T23:12:38.940Z,51.51
2023-05-13T23:15:10.706Z,51.53
2023-05-13T23:17:40.675Z,51.30
2023-05-13T23:20:11.164Z,51.24
2023-05-13T23:22:40.700Z,51.51
2023-05-13T23:25:10.666Z,51.57
2023-05-13T23:27:39.807Z,51.45
2023-05-13T23:30:10.867Z,51.53
2023-05-13T23:32:40.623Z,51.22
2023-05-13T23:35:10.296Z,50.63
2023-05-13T23:37:39.618Z,50.64
2023-05-13T23:40:09.841Z,51.19
2023-05-13T23:42:38.736Z,51.15
2023-05-13T23:45:10.053Z,50.87
2023-05-13T23:47:39.121Z,50.86
2023-05-13T23:50:08.997Z,51.09
2023-05-13T23:52:37.597Z,51.17
2023-05-13T23:55:07.996Z,50.89
2023-05-13T23:57:37.389Z,51.10
